»·PEaware :: N72G KRKS-KJAC

N72G :: KRKS-KJAC

FLIGHT INFORMATION

Flight Status: Arrived
Operator: Privately registered:
United States
More flights under this callsign
Pilot: Joe K. (15257)
Aircraft: ECLIPSE 500
(EA50)
More flights by this aircraft type
Origin: KRKS Rock Springs-Sweetwater
United States
Destination: KJAC Jackson Hole
United States
More flights between these airports :: More routes between these airports
Route: +BPI
File this flight plan on PilotEdge
Remarks:
Altitude:
(Current/Filed)
20,000ft
Speed:
(Current/Filed)
385kts
Departed: 13-May-17 07:51 PM
Arrived: 13-May-17 08:37 PM
Distance/Time
Traveled:
141nm/0:45
Distance/Time
To Go:
Arrived

Flight Plot

Page will automatically refresh every two minutes.

Flight plan parsing failed; only flown route is shown


Map Options




Map Legend


Flown Route
Filed Route
Departure Airport
Arrival Airport
Navaid (VOR, NDB)
Fix

Horizontal Profiles

Position Reports

Time Latitude Longitude Heading Altitude Ground
Speed
13-May-17 19:41 41.598301 -109.072622 13 6762ft 0kts
13-May-17 19:42 41.598301 -109.072622 13 6762ft 0kts
13-May-17 19:43 41.598301 -109.072622 13 6762ft 0kts
13-May-17 19:44 41.598301 -109.072622 13 6762ft 0kts
13-May-17 19:45 41.598301 -109.072622 13 6762ft 0kts
13-May-17 19:46 41.598301 -109.072622 13 6762ft 0kts
13-May-17 19:47 41.598301 -109.072622 13 6762ft 0kts
13-May-17 19:48 41.597795 -109.072426 175 6762ft 11kts
13-May-17 19:49 41.595886 -109.065523 105 6762ft 33kts
13-May-17 19:50 41.595068 -109.060897 105 6762ft 0kts
13-May-17 19:51 41.593882 -109.054180 99 6762ft 33kts
13-May-17 19:52 41.592547 -109.046844 122 6762ft 0kts
13-May-17 19:53 41.591871 -109.048989 291 6762ft 45kts
13-May-17 19:54 41.597318 -109.092323 281 7616ft 159kts
13-May-17 19:55 41.628940 -109.125058 332 9897ft 175kts
13-May-17 19:56 41.681216 -109.157861 333 11359ft 224kts
13-May-17 19:57 41.732751 -109.191539 319 14271ft 187kts
13-May-17 19:58 41.769783 -109.232695 313 16758ft 167kts
13-May-17 19:59 41.806510 -109.272769 309 18432ft 178kts
13-May-17 20:00 41.844738 -109.314226 308 19935ft 190kts
13-May-17 20:01 41.894259 -109.367884 312 19974ft 265kts
13-May-17 20:02 41.956493 -109.434417 314 19971ft 305kts
13-May-17 20:03 42.024617 -109.507283 314 20010ft 321kts
13-May-17 20:04 42.095233 -109.583082 314 20024ft 329kts
13-May-17 20:05 42.165951 -109.659224 314 20018ft 332kts
13-May-17 20:06 42.237665 -109.736704 314 20020ft 334kts
13-May-17 20:07 42.309777 -109.814850 314 20047ft 333kts
13-May-17 20:08 42.381935 -109.893288 314 20047ft 334kts
13-May-17 20:09 42.453991 -109.971852 314 20048ft 335kts
13-May-17 20:10 42.539560 -110.026902 328 20049ft 341kts
13-May-17 20:11 42.623997 -110.082688 329 20048ft 339kts
13-May-17 20:12 42.708537 -110.137232 329 20049ft 338kts
13-May-17 20:13 42.793142 -110.191624 329 20049ft 337kts
13-May-17 20:14 42.877614 -110.245943 329 20049ft 338kts
13-May-17 20:15 42.962491 -110.300836 330 20050ft 339kts
13-May-17 20:16 43.046946 -110.356009 335 19970ft 338kts
13-May-17 20:17 43.130035 -110.409611 335 19138ft 330kts
13-May-17 20:18 43.209558 -110.460903 330 18209ft 312kts
13-May-17 20:19 43.288301 -110.512631 331 17446ft 318kts
13-May-17 20:20 43.367047 -110.564681 334 16896ft 313kts
13-May-17 20:21 43.442838 -110.614213 334 16406ft 307kts
13-May-17 20:22 43.515619 -110.662053 334 15972ft 279kts
13-May-17 20:23 43.580960 -110.704753 329 15962ft 241kts
13-May-17 20:24 43.641007 -110.717522 13 15994ft 228kts
13-May-17 20:25 43.698153 -110.697540 20 15237ft 199kts
13-May-17 20:26 43.747100 -110.672893 20 14456ft 180kts
13-May-17 20:27 43.796847 -110.647947 20 14103ft 193kts
13-May-17 20:28 43.846176 -110.623205 20 14102ft 186kts
13-May-17 20:29 43.894151 -110.622314 332 14061ft 186kts
13-May-17 20:30 43.937286 -110.621881 75 13285ft 181kts
13-May-17 20:31 43.904189 -110.592975 199 12682ft 174kts
13-May-17 20:32 43.856683 -110.616150 198 11673ft 193kts
13-May-17 20:33 43.805747 -110.640971 198 10462ft 182kts
13-May-17 20:34 43.761583 -110.662619 198 9547ft 161kts
13-May-17 20:35 43.720085 -110.682925 198 8677ft 158kts
13-May-17 20:36 43.685591 -110.699743 197 7946ft 109kts
13-May-17 20:37 43.655673 -110.714245 197 7332ft 114kts
13-May-17 20:38 43.626283 -110.728550 197 6729ft 111kts
13-May-17 20:39 43.605840 -110.738216 194 6454ft 26kts
13-May-17 20:40 43.603766 -110.737795 98 6454ft 15kts
13-May-17 20:41 43.603734 -110.736889 115 6454ft 0kts
13-May-17 20:42 43.603734 -110.736889 115 6454ft 0kts
13-May-17 20:43 43.603734 -110.736889 115 6454ft 0kts
13-May-17 20:44 43.603734 -110.736889 115 6454ft 0kts
13-May-17 20:45 43.603734 -110.736889 115 6454ft 0kts

Navigation Log

Ident Type
Flight plan parsing failed, navigation log unavailable